Time;durP1;ratioP1;P1;durP2;ratioP2;P2;SDS_P1;SDS_P2;PMS_P1;PMS_P2;Temp;Humidity;BMP_temperature;BMP_pressure;BME280_temperature;BME280_humidity;BME280_pressure;Samples;Min_cycle;Max_cycle;Signal;HPM_P1;HPM_P2
2023/01/30 00:01:44;;;;;;;13.95;12.45;;;5.30;99.90;;;;;;5050963;28;20234;-79
2023/01/30 00:04:12;;;;;;;12.13;10.00;;;5.30;99.90;;;;;;5050505;28;20231;-79
2023/01/30 00:06:39;;;;;;;18.35;14.18;;;5.30;99.90;;;;;;5051908;28;20716;-78
2023/01/30 00:09:07;;;;;;;20.55;14.07;;;5.30;99.90;;;;;;5041495;28;20216;-80
2023/01/30 00:11:34;;;;;;;10.00;8.85;;;5.30;99.90;;;;;;5051866;28;20224;-79
2023/01/30 00:14:01;;;;;;;13.05;9.95;;;5.30;99.90;;;;;;5051342;28;20228;-76
2023/01/30 00:16:29;;;;;;;15.40;11.27;;;5.30;99.90;;;;;;5051776;28;20228;-76
2023/01/30 00:18:55;;;;;;;18.58;14.70;;;5.30;99.90;;;;;;5051320;28;20225;-79
2023/01/30 00:21:25;;;;;;;18.63;12.00;;;5.20;99.90;;;;;;5053193;28;20228;-79
2023/01/30 00:23:52;;;;;;;13.25;11.02;;;5.20;99.90;;;;;;5055757;28;20228;-76
2023/01/30 00:26:23;;;;;;;20.30;14.98;;;5.20;99.90;;;;;;5055279;28;20228;-76
2023/01/30 00:28:51;;;;;;;17.00;14.02;;;5.20;99.90;;;;;;5056241;28;20258;-79
2023/01/30 00:31:18;;;;;;;10.93;9.82;;;5.20;99.90;;;;;;5053524;28;20228;-77
2023/01/30 00:33:45;;;;;;;12.88;9.85;;;5.30;99.90;;;;;;5055159;28;20605;-79
2023/01/30 00:36:13;;;;;;;15.80;12.60;;;5.20;99.90;;;;;;5054828;28;20343;-79
2023/01/30 00:38:40;;;;;;;11.25;9.20;;;5.20;99.90;;;;;;5055900;28;20246;-79
2023/01/30 00:41:09;;;;;;;11.45;9.82;;;5.20;99.90;;;;;;5053745;28;20247;-79
2023/01/30 00:49:10;;;;;;;15.55;10.95;;;5.00;99.90;;;;;;5054833;28;20681;-77
2023/01/30 00:51:40;;;;;;;15.57;12.95;;;5.10;99.90;;;;;;5054993;28;20220;-76
2023/01/30 00:54:07;;;;;;;15.98;11.75;;;5.10;99.90;;;;;;5054354;28;20300;-77
2023/01/30 00:56:34;;;;;;;21.05;15.52;;;5.10;99.90;;;;;;5055201;28;20545;-76
2023/01/30 00:59:02;;;;;;;16.25;13.68;;;5.10;99.90;;;;;;5054338;28;20234;-76
2023/01/30 01:01:32;;;;;;;14.25;11.48;;;5.10;99.90;;;;;;5044652;28;20228;-76
2023/01/30 01:03:59;;;;;;;14.00;11.52;;;5.00;99.90;;;;;;5054622;28;20286;-79
2023/01/30 01:06:26;;;;;;;14.00;11.27;;;5.10;99.90;;;;;;5054029;28;20248;-79
2023/01/30 01:08:53;;;;;;;16.83;13.20;;;5.00;99.90;;;;;;5054665;28;20600;-76
2023/01/30 01:11:24;;;;;;;16.45;11.77;;;5.00;99.90;;;;;;5053660;28;20220;-76
2023/01/30 01:13:53;;;;;;;18.40;12.57;;;5.10;99.90;;;;;;5054476;28;20307;-76
2023/01/30 01:16:22;;;;;;;12.82;11.32;;;5.10;99.90;;;;;;5054208;28;20224;-76
2023/01/30 01:18:50;;;;;;;19.52;13.25;;;5.10;99.90;;;;;;5054561;28;20244;-76
2023/01/30 01:21:17;;;;;;;15.93;12.45;;;5.00;99.90;;;;;;5053342;28;20224;-79
2023/01/30 01:23:44;;;;;;;20.67;14.63;;;5.00;99.90;;;;;;5054812;28;20630;-79
2023/01/30 01:26:12;;;;;;;18.80;14.77;;;5.00;99.90;;;;;;5053668;28;20225;-76
2023/01/30 01:28:39;;;;;;;13.45;11.02;;;5.10;99.90;;;;;;5054147;28;20307;-76
2023/01/30 01:31:10;;;;;;;16.13;12.73;;;5.10;99.90;;;;;;5053255;28;20271;-76
2023/01/30 01:33:39;;;;;;;20.05;13.90;;;5.10;99.90;;;;;;5053565;28;20300;-76
2023/01/30 01:36:08;;;;;;;18.17;14.82;;;5.00;99.90;;;;;;5053808;28;20286;-76
2023/01/30 01:38:35;;;;;;;17.30;13.23;;;5.00;99.90;;;;;;5053756;28;20248;-76
2023/01/30 01:41:01;;;;;;;15.05;11.68;;;5.00;99.90;;;;;;5053569;28;20243;-76
2023/01/30 01:43:31;;;;;;;16.23;13.30;;;5.00;99.90;;;;;;5053648;28;20296;-76
2023/01/30 01:46:01;;;;;;;24.27;16.15;;;5.00;99.90;;;;;;5053889;28;20683;-76
2023/01/30 01:48:34;;;;;;;22.83;15.63;;;5.10;99.90;;;;;;5053712;28;20282;-76
2023/01/30 01:51:05;;;;;;;19.98;14.38;;;5.10;99.90;;;;;;5054353;28;20308;-76
2023/01/30 01:53:36;;;;;;;17.05;13.98;;;5.10;99.90;;;;;;5053922;28;20235;-76
2023/01/30 01:56:06;;;;;;;15.38;12.10;;;5.10;99.90;;;;;;5054288;28;20236;-76
2023/01/30 01:58:39;;;;;;;15.95;12.32;;;5.10;99.90;;;;;;5053494;28;20670;-76
2023/01/30 02:01:08;;;;;;;13.85;11.90;;;5.10;99.90;;;;;;5053991;28;20237;-76
2023/01/30 02:03:39;;;;;;;14.75;12.27;;;5.10;99.90;;;;;;5053559;28;20225;-76
2023/01/30 02:06:09;;;;;;;22.83;14.25;;;5.00;99.90;;;;;;5054071;28;20229;-79
2023/01/30 02:08:40;;;;;;;21.45;15.48;;;5.00;99.90;;;;;;5053765;28;20296;-79
2023/01/30 02:11:11;;;;;;;16.45;12.75;;;5.00;99.90;;;;;;5053273;28;20229;-79
2023/01/30 02:13:38;;;;;;;18.90;13.82;;;4.90;99.90;;;;;;5053817;28;20522;-76
2023/01/30 02:16:07;;;;;;;15.93;12.88;;;4.90;99.90;;;;;;5053527;28;20229;-79
2023/01/30 02:18:38;;;;;;;19.42;14.05;;;4.90;99.90;;;;;;5053078;28;20232;-78
2023/01/30 02:21:42;;;;;;;16.73;13.70;;;4.90;99.90;;;;;;5053848;28;20646;-79
2023/01/30 02:25:00;;;;;;;17.17;12.60;;;4.90;99.90;;;;;;5053565;28;20294;-76
2023/01/30 02:27:42;;;;;;;19.17;12.30;;;4.80;99.90;;;;;;4989688;28;20278;-79
2023/01/30 02:30:39;;;;;;;20.05;14.43;;;4.80;99.90;;;;;;5052110;28;20232;-76
2023/01/30 02:33:15;;;;;;;16.08;12.98;;;4.80;99.90;;;;;;5052456;28;20236;-76
2023/01/30 02:35:53;;;;;;;17.52;13.02;;;4.80;99.90;;;;;;5053870;28;20228;-79
2023/01/30 02:38:31;;;;;;;19.67;14.43;;;4.70;99.90;;;;;;5053453;28;20228;-76
2023/01/30 02:41:10;;;;;;;22.00;14.82;;;4.70;99.90;;;;;;5053648;28;20232;-79
2023/01/30 02:43:46;;;;;;;19.00;13.88;;;4.80;99.90;;;;;;5053460;28;20609;-79
2023/01/30 02:46:21;;;;;;;19.23;14.63;;;4.80;99.90;;;;;;5052431;28;20575;-79
2023/01/30 02:48:55;;;;;;;25.13;14.90;;;4.80;99.90;;;;;;5053782;28;20234;-76
2023/01/30 02:51:27;;;;;;;19.13;14.55;;;4.80;99.90;;;;;;5052399;28;20312;-76
2023/01/30 02:53:55;;;;;;;18.70;13.55;;;4.70;99.90;;;;;;5055744;28;20229;-79
2023/01/30 02:56:22;;;;;;;21.05;14.93;;;4.80;99.90;;;;;;5054082;28;20225;-77
2023/01/30 02:58:54;;;;;;;19.65;14.50;;;4.80;99.90;;;;;;5054431;28;20255;-78
2023/01/30 03:01:45;;;;;;;19.58;15.32;;;4.80;99.90;;;;;;5054517;28;20228;-79
2023/01/30 03:04:30;;;;;;;17.33;13.45;;;4.80;99.90;;;;;;5054580;28;20232;-79
2023/01/30 03:07:11;;;;;;;17.98;13.43;;;4.80;99.90;;;;;;5053783;28;20277;-79
2023/01/30 03:09:49;;;;;;;21.67;15.48;;;4.80;99.90;;;;;;5053748;28;20236;-79
2023/01/30 03:12:29;;;;;;;33.92;21.17;;;4.80;99.90;;;;;;5052086;28;20248;-76
2023/01/30 03:15:03;;;;;;;19.00;13.55;;;4.80;99.90;;;;;;5052709;28;20304;-79
2023/01/30 03:17:33;;;;;;;20.20;14.75;;;4.90;99.90;;;;;;5052427;28;20277;-78
2023/01/30 03:20:02;;;;;;;19.27;13.32;;;4.90;99.90;;;;;;5052598;28;20228;-79
2023/01/30 03:22:29;;;;;;;20.60;14.80;;;4.90;99.90;;;;;;5052465;28;20308;-78
2023/01/30 03:24:57;;;;;;;19.00;14.50;;;4.90;99.90;;;;;;5053095;28;20950;-79
2023/01/30 03:27:24;;;;;;;17.55;13.23;;;4.90;99.90;;;;;;5052089;28;20260;-76
2023/01/30 03:29:51;;;;;;;21.70;16.48;;;5.00;99.90;;;;;;5052401;28;20225;-79
2023/01/30 03:32:18;;;;;;;19.25;14.75;;;5.00;99.90;;;;;;5051363;28;20286;-79
2023/01/30 03:34:47;;;;;;;21.33;15.15;;;5.00;99.90;;;;;;5052312;28;20232;-76
2023/01/30 03:37:14;;;;;;;19.67;13.55;;;5.00;99.90;;;;;;5052277;28;20279;-76
2023/01/30 03:39:41;;;;;;;16.90;13.60;;;5.10;99.90;;;;;;5052234;28;20569;-76
2023/01/30 03:42:08;;;;;;;16.40;13.20;;;5.10;99.90;;;;;;5052896;28;20225;-76
2023/01/30 03:44:35;;;;;;;15.18;12.18;;;5.10;99.90;;;;;;5052557;28;20224;-76
2023/01/30 03:47:02;;;;;;;20.63;13.95;;;5.10;99.90;;;;;;5052577;28;20232;-76
2023/01/30 03:49:29;;;;;;;17.15;14.35;;;5.10;99.90;;;;;;5052118;28;20259;-76
2023/01/30 03:52:03;;;;;;;20.00;13.75;;;5.20;99.90;;;;;;5052528;28;20224;-79
2023/01/30 03:54:30;;;;;;;21.80;14.23;;;5.20;99.90;;;;;;5051956;28;20591;-80
2023/01/30 03:56:57;;;;;;;17.10;13.57;;;5.20;99.90;;;;;;5054940;28;20235;-80
2023/01/30 03:59:24;;;;;;;19.33;14.05;;;5.20;99.90;;;;;;5055614;28;20255;-79
2023/01/30 04:01:51;;;;;;;19.77;14.45;;;5.30;99.90;;;;;;5056270;28;20278;-76
2023/01/30 04:04:19;;;;;;;21.08;15.00;;;5.20;99.90;;;;;;5055943;28;20686;-76
2023/01/30 04:06:46;;;;;;;16.85;13.90;;;5.30;99.90;;;;;;5055450;28;20741;-76
2023/01/30 04:09:14;;;;;;;18.50;13.55;;;5.30;99.90;;;;;;5055385;28;20228;-79
2023/01/30 04:11:41;;;;;;;21.10;15.10;;;5.40;99.90;;;;;;5055892;28;20287;-76
2023/01/30 04:14:08;;;;;;;17.63;13.60;;;5.40;99.90;;;;;;5056201;28;20228;-76
2023/01/30 04:16:35;;;;;;;16.45;14.00;;;5.30;99.90;;;;;;5055680;28;20220;-76
2023/01/30 04:19:02;;;;;;;17.20;13.32;;;5.40;99.90;;;;;;5054828;28;20240;-76
2023/01/30 04:21:29;;;;;;;15.38;12.23;;;5.40;99.90;;;;;;5055183;28;20220;-76
2023/01/30 04:23:56;;;;;;;19.13;14.60;;;5.50;99.90;;;;;;5056062;28;20228;-76
2023/01/30 04:26:25;;;;;;;18.52;14.05;;;5.50;99.90;;;;;;5055409;28;20286;-76
2023/01/30 04:28:52;;;;;;;24.80;17.92;;;5.50;99.90;;;;;;5055514;28;20225;-76
2023/01/30 04:31:19;;;;;;;15.95;13.27;;;5.50;99.90;;;;;;5054924;28;20239;-76
2023/01/30 04:33:46;;;;;;;16.73;13.90;;;5.60;99.90;;;;;;5055737;28;20220;-76
2023/01/30 04:36:13;;;;;;;22.73;16.17;;;5.60;99.90;;;;;;5055689;28;20217;-76
2023/01/30 04:38:40;;;;;;;16.33;12.38;;;5.60;99.90;;;;;;5055366;28;20221;-75
2023/01/30 04:41:09;;;;;;;16.05;12.43;;;5.60;99.90;;;;;;5056018;28;20232;-76
2023/01/30 04:43:38;;;;;;;18.23;14.00;;;5.60;99.90;;;;;;5055344;28;20290;-76
2023/01/30 04:46:05;;;;;;;15.93;11.40;;;5.70;99.90;;;;;;5056086;28;20236;-76
2023/01/30 04:48:32;;;;;;;17.30;13.20;;;5.60;99.90;;;;;;5055319;28;20300;-76
2023/01/30 04:50:59;;;;;;;19.65;14.43;;;5.70;99.90;;;;;;5055827;28;20232;-76
2023/01/30 04:53:32;;;;;;;20.88;14.40;;;5.70;99.90;;;;;;5054381;28;20235;-76
2023/01/30 04:55:59;;;;;;;17.83;14.25;;;5.70;99.90;;;;;;5055587;28;20252;-76
2023/01/30 04:58:26;;;;;;;18.52;13.75;;;5.70;99.90;;;;;;5054551;28;20260;-76
2023/01/30 05:00:54;;;;;;;20.02;14.38;;;5.70;99.90;;;;;;5055321;28;20598;-76
2023/01/30 05:03:21;;;;;;;18.02;13.52;;;5.80;99.90;;;;;;5053944;28;20231;-76
2023/01/30 05:05:49;;;;;;;20.67;14.55;;;5.80;99.90;;;;;;5055178;28;20221;-76
2023/01/30 05:08:18;;;;;;;21.80;14.70;;;5.80;99.90;;;;;;5055430;28;20213;-76
2023/01/30 05:10:45;;;;;;;22.10;16.55;;;5.80;99.90;;;;;;5052813;28;20299;-79
2023/01/30 05:13:12;;;;;;;17.35;13.35;;;5.70;99.90;;;;;;5055151;28;20613;-76
2023/01/30 05:15:40;;;;;;;19.55;15.70;;;5.80;99.90;;;;;;5054960;28;20306;-79
2023/01/30 05:18:08;;;;;;;23.63;17.17;;;5.80;99.90;;;;;;5054821;28;20319;-79
2023/01/30 05:20:36;;;;;;;20.30;15.63;;;5.80;99.90;;;;;;5053499;28;20229;-79
2023/01/30 05:23:02;;;;;;;18.73;14.52;;;5.70;99.90;;;;;;5055051;28;20224;-79
2023/01/30 05:25:29;;;;;;;21.92;15.40;;;5.70;99.90;;;;;;5053199;28;20220;-80
2023/01/30 05:27:57;;;;;;;20.80;15.85;;;5.70;99.90;;;;;;5054737;28;20224;-76
2023/01/30 05:30:24;;;;;;;24.75;15.65;;;5.70;99.90;;;;;;5053347;28;20228;-76
2023/01/30 05:32:51;;;;;;;20.83;16.67;;;5.70;99.90;;;;;;5054590;28;20228;-80
2023/01/30 05:35:19;;;;;;;18.75;13.52;;;5.70;99.90;;;;;;5054652;28;20252;-76
2023/01/30 05:38:06;;;;;;;19.48;13.90;;;5.70;99.90;;;;;;5054114;28;20232;-78
2023/01/30 05:40:33;;;;;;;21.38;14.88;;;5.70;99.90;;;;;;5053114;28;20295;-76
2023/01/30 05:43:00;;;;;;;19.30;13.40;;;5.60;99.90;;;;;;5054111;28;20244;-76
2023/01/30 05:45:27;;;;;;;19.10;14.38;;;5.60;99.90;;;;;;5053881;28;20225;-80
2023/01/30 05:47:54;;;;;;;17.98;12.93;;;5.70;99.90;;;;;;5053977;28;20228;-76
2023/01/30 05:50:23;;;;;;;17.40;13.52;;;5.70;99.90;;;;;;5054006;28;20237;-79
2023/01/30 05:52:57;;;;;;;16.25;13.55;;;5.70;99.90;;;;;;5053966;28;20224;-79
2023/01/30 05:55:25;;;;;;;21.85;13.23;;;5.70;99.90;;;;;;5054178;28;20231;-79
2023/01/30 05:57:52;;;;;;;19.90;14.35;;;5.70;99.90;;;;;;5053208;28;20217;-78
2023/01/30 06:00:20;;;;;;;19.95;14.98;;;5.70;99.90;;;;;;5054109;28;20670;-78
2023/01/30 06:02:47;;;;;;;17.83;13.50;;;5.60;99.90;;;;;;5053816;28;20225;-75
2023/01/30 06:05:14;;;;;;;18.23;14.90;;;5.70;99.90;;;;;;5054148;28;20224;-79
2023/01/30 06:07:45;;;;;;;18.75;13.52;;;5.70;99.90;;;;;;5053500;28;20358;-78
2023/01/30 06:10:12;;;;;;;19.65;13.50;;;5.70;99.90;;;;;;5053612;28;20229;-79
2023/01/30 06:12:39;;;;;;;15.65;12.57;;;5.60;99.90;;;;;;5053650;28;20220;-79
2023/01/30 06:15:07;;;;;;;22.52;15.43;;;5.70;99.90;;;;;;5054220;28;20274;-79
2023/01/30 06:17:34;;;;;;;17.50;12.70;;;5.70;99.90;;;;;;5053145;28;20225;-76
2023/01/30 06:20:01;;;;;;;17.98;14.27;;;5.80;99.90;;;;;;5052073;28;20224;-78
2023/01/30 06:22:31;;;;;;;14.82;12.50;;;5.70;99.90;;;;;;5053068;28;20271;-77
2023/01/30 06:24:59;;;;;;;17.75;14.65;;;5.80;99.90;;;;;;5051995;28;20623;-79
2023/01/30 06:27:26;;;;;;;19.17;14.05;;;5.70;99.90;;;;;;5053742;28;20274;-80
2023/01/30 06:29:53;;;;;;;18.88;15.00;;;5.80;99.90;;;;;;5053050;28;20743;-76
2023/01/30 06:32:20;;;;;;;21.17;14.73;;;5.80;99.90;;;;;;5052844;28;20220;-76
2023/01/30 06:34:47;;;;;;;21.88;15.00;;;5.80;99.90;;;;;;5053009;28;20231;-76
2023/01/30 06:37:14;;;;;;;22.00;15.63;;;5.90;99.90;;;;;;5053338;28;20224;-76
2023/01/30 06:39:41;;;;;;;19.35;15.13;;;5.90;99.90;;;;;;5053186;28;20244;-76
2023/01/30 06:42:13;;;;;;;16.60;14.27;;;5.90;99.90;;;;;;5053016;28;20225;-79
2023/01/30 06:44:40;;;;;;;20.15;15.40;;;5.90;99.90;;;;;;5052927;28;20419;-76
2023/01/30 06:47:07;;;;;;;18.70;14.40;;;5.90;99.90;;;;;;5052554;28;20705;-76
2023/01/30 06:49:36;;;;;;;17.02;13.18;;;6.00;99.90;;;;;;5052773;28;20224;-76
2023/01/30 06:52:04;;;;;;;17.05;13.95;;;6.00;99.90;;;;;;5053001;28;20724;-78
2023/01/30 06:54:34;;;;;;;14.93;12.45;;;6.00;99.90;;;;;;5052623;28;20312;-78
2023/01/30 06:57:01;;;;;;;18.13;13.90;;;6.00;99.90;;;;;;5052185;28;20224;-78
2023/01/30 06:59:35;;;;;;;16.05;10.65;;;6.00;99.90;;;;;;5052421;28;20680;-78
2023/01/30 07:02:02;;;;;;;16.90;12.57;;;6.10;99.90;;;;;;5053014;28;20294;-75
2023/01/30 07:04:29;;;;;;;17.08;11.98;;;6.10;99.90;;;;;;5052017;28;20607;-78
2023/01/30 07:06:56;;;;;;;15.38;12.45;;;6.10;99.90;;;;;;5052665;28;20225;-76
2023/01/30 07:09:23;;;;;;;17.50;11.00;;;6.10;99.90;;;;;;5052404;28;20259;-76
2023/01/30 07:11:50;;;;;;;16.98;11.88;;;6.10;99.90;;;;;;5052264;28;20510;-76
2023/01/30 07:14:17;;;;;;;15.48;11.75;;;6.10;99.90;;;;;;5051994;28;20244;-78
2023/01/30 07:16:45;;;;;;;16.45;11.57;;;6.10;99.90;;;;;;5052211;28;20225;-76
2023/01/30 07:19:12;;;;;;;14.20;10.80;;;6.10;99.90;;;;;;5051963;28;20228;-76
2023/01/30 07:21:39;;;;;;;14.15;12.73;;;6.10;99.90;;;;;;5051782;28;20274;-76
2023/01/30 07:24:07;;;;;;;15.45;13.35;;;6.20;99.90;;;;;;5052313;28;20270;-78
2023/01/30 07:26:34;;;;;;;15.23;11.63;;;6.20;99.90;;;;;;5052057;28;20610;-76
2023/01/30 07:29:06;;;;;;;18.73;12.90;;;6.20;99.90;;;;;;5052161;28;20259;-79
2023/01/30 07:31:35;;;;;;;14.50;12.48;;;6.30;99.90;;;;;;5051289;28;20228;-76
2023/01/30 07:34:03;;;;;;;12.20;10.20;;;6.20;99.90;;;;;;5052372;28;20307;-78
2023/01/30 07:36:32;;;;;;;14.55;11.65;;;6.30;99.90;;;;;;5052586;28;20300;-78
2023/01/30 07:39:02;;;;;;;14.13;12.13;;;6.30;99.90;;;;;;5051778;28;20234;-78
2023/01/30 07:41:29;;;;;;;13.68;12.27;;;6.30;99.90;;;;;;5042126;28;20225;-79
2023/01/30 07:43:56;;;;;;;12.07;10.60;;;6.30;99.90;;;;;;5051026;28;20298;-78
2023/01/30 07:46:24;;;;;;;14.68;11.18;;;6.30;99.90;;;;;;5052176;28;20224;-75
2023/01/30 07:48:51;;;;;;;13.70;11.40;;;6.40;99.90;;;;;;5052205;28;20547;-75
2023/01/30 07:51:19;;;;;;;12.75;11.43;;;6.40;99.90;;;;;;5052083;28;20266;-75
2023/01/30 07:53:50;;;;;;;11.88;10.18;;;6.50;99.90;;;;;;5051340;28;20733;-76
2023/01/30 07:56:19;;;;;;;12.60;10.25;;;6.60;99.90;;;;;;5051958;28;20299;-79
2023/01/30 07:58:48;;;;;;;10.95;8.48;;;6.60;99.90;;;;;;5051868;28;20259;-79
2023/01/30 08:01:15;;;;;;;12.52;9.50;;;6.60;99.90;;;;;;5052217;28;20224;-76
2023/01/30 08:03:42;;;;;;;11.25;9.88;;;6.60;99.90;;;;;;5051674;28;20247;-76
2023/01/30 08:06:11;;;;;;;9.68;7.68;;;6.70;99.90;;;;;;5051613;28;20682;-79
2023/01/30 08:08:40;;;;;;;10.90;8.73;;;6.70;99.90;;;;;;5052225;28;20255;-79
2023/01/30 08:11:09;;;;;;;10.25;7.30;;;6.70;99.90;;;;;;5050915;28;20232;-79
2023/01/30 08:13:39;;;;;;;9.07;7.13;;;6.70;99.90;;;;;;5051831;28;20225;-76
2023/01/30 08:16:08;;;;;;;11.70;7.97;;;6.80;99.90;;;;;;5050605;28;20229;-76
2023/01/30 08:18:35;;;;;;;9.93;7.55;;;6.80;99.90;;;;;;5051648;28;20228;-79
2023/01/30 08:21:04;;;;;;;7.68;6.97;;;6.80;99.90;;;;;;5053015;28;20224;-76
2023/01/30 08:23:32;;;;;;;11.60;9.05;;;6.80;99.90;;;;;;5053455;28;20225;-79
2023/01/30 08:26:02;;;;;;;10.63;8.50;;;6.90;99.90;;;;;;5052378;28;20231;-75
2023/01/30 08:28:31;;;;;;;9.57;8.55;;;6.90;99.90;;;;;;5053984;28;20231;-75
2023/01/30 08:30:58;;;;;;;9.90;8.85;;;6.90;99.90;;;;;;5052776;28;20312;-80
2023/01/30 08:33:25;;;;;;;14.60;11.35;;;6.90;99.90;;;;;;5051597;28;20225;-79
2023/01/30 08:35:55;;;;;;;10.15;9.15;;;6.90;99.90;;;;;;5052435;28;20236;-77
2023/01/30 08:38:24;;;;;;;12.25;10.20;;;6.90;99.90;;;;;;5043998;28;20220;-80
2023/01/30 08:40:52;;;;;;;9.32;8.38;;;6.90;99.90;;;;;;5050933;28;20259;-77
2023/01/30 08:43:20;;;;;;;8.95;7.90;;;6.90;99.90;;;;;;5053802;28;20302;-76
2023/01/30 08:45:47;;;;;;;9.20;7.55;;;6.90;99.90;;;;;;5055416;28;20225;-77
2023/01/30 08:48:14;;;;;;;9.18;8.15;;;7.00;99.90;;;;;;5055090;28;20233;-79
2023/01/30 08:50:42;;;;;;;8.18;7.25;;;7.00;99.90;;;;;;5055200;28;20303;-80
2023/01/30 08:53:09;;;;;;;11.30;9.13;;;7.00;99.90;;;;;;5054441;28;20224;-80
2023/01/30 08:55:38;;;;;;;9.65;7.88;;;7.00;99.90;;;;;;5054832;28;20248;-76
2023/01/30 08:58:04;;;;;;;7.15;6.55;;;7.00;99.90;;;;;;5053932;28;20658;-77
2023/01/30 09:00:43;;;;;;;;;;;;;;;;;;;;;
2023/01/30 09:03:13;;;;;;;9.48;6.88;;;7.10;99.90;;;;;;5044150;28;20216;-79
2023/01/30 09:05:40;;;;;;;8.55;6.93;;;7.10;99.90;;;;;;5055885;28;20228;-79
2023/01/30 09:08:07;;;;;;;12.98;7.38;;;7.10;99.90;;;;;;5054398;28;20299;-77
2023/01/30 09:10:42;;;;;;;10.50;8.43;;;7.20;99.90;;;;;;5054143;28;20234;-76
2023/01/30 09:13:10;;;;;;;7.95;6.45;;;7.20;99.90;;;;;;5054992;28;20240;-76
2023/01/30 09:15:42;;;;;;;8.63;6.15;;;7.20;99.90;;;;;;5054569;28;20317;-76
2023/01/30 09:18:09;;;;;;;5.63;4.90;;;7.20;99.90;;;;;;5053809;28;20228;-76
2023/01/30 09:20:37;;;;;;;5.93;5.10;;;7.30;99.90;;;;;;5054517;28;20255;-76
2023/01/30 09:23:16;;;;;;;8.55;4.80;;;7.30;99.90;;;;;;5052950;28;20233;-76
2023/01/30 09:25:45;;;;;;;5.10;4.57;;;7.30;99.90;;;;;;5052933;28;20216;-79
2023/01/30 09:28:12;;;;;;;5.25;3.88;;;7.40;99.90;;;;;;5054742;28;20312;-77
2023/01/30 09:30:41;;;;;;;4.32;3.55;;;7.40;99.90;;;;;;5054316;28;20239;-77
2023/01/30 09:33:08;;;;;;;5.07;4.10;;;7.40;99.90;;;;;;5054084;28;20310;-80
2023/01/30 09:35:37;;;;;;;4.95;4.10;;;7.50;99.90;;;;;;5054719;28;20232;-76
2023/01/30 09:38:04;;;;;;;5.45;4.40;;;7.50;99.90;;;;;;5042394;28;20270;-77
2023/01/30 09:40:42;;;;;;;4.60;3.40;;;7.50;99.90;;;;;;5054615;28;20286;-77
2023/01/30 09:43:26;;;;;;;9.98;4.43;;;7.50;99.90;;;;;;5057584;28;20224;-80
2023/01/30 09:46:16;;;;;;;5.53;5.03;;;7.60;99.90;;;;;;5056801;28;20275;-80
2023/01/30 09:48:55;;;;;;;10.43;6.28;;;7.60;99.90;;;;;;5045364;28;20230;-77
2023/01/30 09:51:34;;;;;;;7.03;5.22;;;7.70;99.90;;;;;;5054041;28;20638;-77
2023/01/30 09:54:20;;;;;;;6.90;3.35;;;7.70;99.90;;;;;;5052530;28;20221;-76
2023/01/30 09:56:56;;;;;;;3.85;2.95;;;7.80;99.90;;;;;;5054798;28;20231;-75
2023/01/30 09:59:30;;;;;;;10.57;4.93;;;7.80;99.90;;;;;;5053272;28;20239;-80
2023/01/30 10:02:18;;;;;;;4.93;3.10;;;7.90;99.90;;;;;;5054509;28;20220;-79
2023/01/30 10:04:48;;;;;;;4.00;2.65;;;7.90;99.90;;;;;;5053958;28;20221;-79
2023/01/30 10:07:23;;;;;;;5.65;2.80;;;7.90;99.90;;;;;;5053442;28;20249;-80
2023/01/30 10:09:59;;;;;;;4.57;2.08;;;7.90;99.90;;;;;;5052760;28;20294;-79
2023/01/30 10:12:41;;;;;;;5.10;2.50;;;8.00;99.90;;;;;;5053426;28;20270;-80
2023/01/30 10:15:25;;;;;;;7.40;2.70;;;8.00;99.90;;;;;;5053378;28;20227;-79
2023/01/30 10:18:06;;;;;;;4.90;3.10;;;8.00;99.90;;;;;;5052838;28;20665;-80
2023/01/30 10:20:43;;;;;;;13.88;3.53;;;8.00;99.90;;;;;;5053259;28;20290;-77
2023/01/30 10:23:25;;;;;;;6.38;3.30;;;7.90;99.90;;;;;;5043312;28;20221;-80
2023/01/30 10:25:56;;;;;;;8.10;2.50;;;8.00;99.90;;;;;;5053452;28;20723;-77
2023/01/30 10:28:28;;;;;;;11.05;3.00;;;8.00;99.90;;;;;;5054128;28;20221;-79
2023/01/30 10:31:05;;;;;;;8.45;2.80;;;8.00;99.90;;;;;;5044426;28;20229;-80
2023/01/30 10:33:38;;;;;;;7.45;2.85;;;8.00;99.90;;;;;;5053230;28;20337;-77
2023/01/30 10:36:11;;;;;;;6.47;3.13;;;7.90;99.90;;;;;;5052582;28;20233;-76
2023/01/30 10:38:44;;;;;;;10.90;5.95;;;8.00;99.90;;;;;;5053405;28;20615;-78
2023/01/30 10:41:20;;;;;;;8.10;3.22;;;8.10;99.90;;;;;;5051782;28;20324;-76
2023/01/30 10:43:53;;;;;;;9.20;3.80;;;8.00;99.90;;;;;;5053572;28;20296;-79
2023/01/30 10:46:35;;;;;;;10.23;5.40;;;8.10;99.90;;;;;;5053078;28;20621;-76
2023/01/30 10:49:06;;;;;;;6.78;2.70;;;8.10;99.90;;;;;;5052682;28;20235;-76
2023/01/30 10:51:44;;;;;;;6.57;2.72;;;8.10;99.90;;;;;;5053237;28;20617;-78
2023/01/30 10:54:17;;;;;;;6.28;2.42;;;8.10;99.90;;;;;;5052845;28;20228;-80
2023/01/30 10:56:55;;;;;;;9.70;3.40;;;8.10;99.90;;;;;;5053327;28;20228;-77
2023/01/30 10:59:24;;;;;;;5.68;2.10;;;8.20;99.90;;;;;;5052913;28;20235;-80
2023/01/30 11:01:59;;;;;;;5.75;2.33;;;8.20;99.90;;;;;;5053433;28;20251;-79
2023/01/30 11:04:31;;;;;;;11.27;2.90;;;8.20;99.90;;;;;;5043465;28;20220;-76
2023/01/30 11:07:03;;;;;;;8.85;3.55;;;8.20;99.90;;;;;;5052846;28;20359;-77
2023/01/30 11:09:42;;;;;;;10.48;2.70;;;8.20;99.90;;;;;;5051864;28;20747;-75
2023/01/30 11:12:09;;;;;;;6.65;2.70;;;8.20;99.90;;;;;;5051445;28;20220;-77
2023/01/30 11:14:57;;;;;;;7.00;2.97;;;8.20;99.90;;;;;;5051839;28;20217;-76
2023/01/30 11:17:32;;;;;;;3.70;2.10;;;8.30;99.90;;;;;;5052031;28;20273;-78
2023/01/30 11:20:04;;;;;;;14.10;4.10;;;8.30;99.90;;;;;;5053184;28;20278;-79
2023/01/30 11:22:33;;;;;;;12.40;4.82;;;8.30;99.90;;;;;;5052441;28;20231;-80
2023/01/30 11:25:02;;;;;;;13.95;5.28;;;8.30;99.90;;;;;;5053187;28;20690;-79
2023/01/30 11:27:31;;;;;;;12.43;4.75;;;8.30;99.90;;;;;;5051620;28;20221;-76
2023/01/30 11:30:11;;;;;;;9.23;3.35;;;8.40;99.90;;;;;;5052083;28;20701;-78
2023/01/30 11:32:39;;;;;;;10.20;3.53;;;8.40;99.90;;;;;;5052242;28;20614;-77
2023/01/30 11:35:25;;;;;;;10.93;2.85;;;8.50;99.90;;;;;;5052938;28;20619;-80
2023/01/30 11:38:10;;;;;;;10.85;2.97;;;8.50;99.90;;;;;;5052995;28;20220;-79
2023/01/30 11:40:39;;;;;;;6.03;3.17;;;8.50;99.90;;;;;;5051795;28;20227;-79
2023/01/30 11:43:12;;;;;;;11.15;2.95;;;8.60;99.90;;;;;;5052380;28;20296;-77
2023/01/30 11:45:41;;;;;;;12.20;3.33;;;8.50;99.90;;;;;;5052121;28;20240;-77
2023/01/30 11:48:15;;;;;;;11.07;3.25;;;8.50;99.90;;;;;;5051705;28;20228;-76
2023/01/30 11:50:45;;;;;;;8.07;3.75;;;8.50;99.90;;;;;;5050966;28;20216;-76
2023/01/30 11:53:26;;;;;;;15.32;3.80;;;8.50;99.90;;;;;;5051981;28;20239;-76
2023/01/30 11:56:00;;;;;;;7.53;2.60;;;8.40;99.90;;;;;;5049207;28;20470;-78
2023/01/30 11:58:33;;;;;;;7.63;3.15;;;8.40;99.90;;;;;;5047965;28;20224;-79
2023/01/30 12:01:01;;;;;;;6.93;2.15;;;8.40;99.90;;;;;;5051946;28;20302;-77
2023/01/30 12:03:29;;;;;;;9.70;3.83;;;8.30;99.90;;;;;;5052420;28;20225;-77
2023/01/30 12:05:59;;;;;;;5.80;2.03;;;8.30;99.90;;;;;;5052226;28;20237;-79
2023/01/30 12:08:32;;;;;;;7.05;3.00;;;8.20;99.90;;;;;;5052542;28;20248;-76
2023/01/30 12:11:02;;;;;;;3.63;1.95;;;8.20;99.90;;;;;;5041451;28;20229;-76
2023/01/30 12:13:34;;;;;;;6.28;2.58;;;8.20;99.90;;;;;;5043585;28;20300;-79
2023/01/30 12:16:17;;;;;;;7.07;2.70;;;8.10;99.90;;;;;;5031825;28;20221;-77
2023/01/30 12:18:52;;;;;;;12.15;8.10;;;8.10;99.90;;;;;;5036388;28;20240;-75
2023/01/30 12:21:32;;;;;;;10.40;5.75;;;8.00;99.90;;;;;;5034662;28;20224;-79
2023/01/30 12:24:07;;;;;;;5.05;3.33;;;8.00;99.90;;;;;;5035110;28;20244;-77
2023/01/30 12:26:40;;;;;;;7.25;3.10;;;8.00;99.90;;;;;;5035318;28;20228;-77
2023/01/30 12:29:20;;;;;;;7.22;2.90;;;8.00;99.90;;;;;;5034912;28;20248;-79
2023/01/30 12:31:51;;;;;;;6.45;2.80;;;7.90;99.90;;;;;;5051623;28;20236;-79
2023/01/30 12:34:18;;;;;;;14.15;4.03;;;8.00;99.90;;;;;;5053265;28;20221;-79
2023/01/30 12:36:54;;;;;;;11.23;3.28;;;8.00;99.90;;;;;;5053599;28;20402;-79
2023/01/30 12:39:37;;;;;;;7.65;2.90;;;8.00;99.90;;;;;;5053808;28;20232;-76
2023/01/30 12:42:26;;;;;;;13.50;4.75;;;8.10;99.90;;;;;;5053434;28;20232;-77
2023/01/30 12:45:12;;;;;;;11.23;3.38;;;8.10;99.90;;;;;;5052851;28;20305;-76
2023/01/30 12:48:10;;;;;;;12.40;6.57;;;8.20;99.90;;;;;;5048433;28;20579;-76
2023/01/30 12:50:54;;;;;;;9.95;3.58;;;8.20;99.90;;;;;;5025297;28;20228;-79
2023/01/30 12:53:32;;;;;;;11.05;3.63;;;8.30;99.90;;;;;;5053855;28;20666;-79
2023/01/30 12:56:35;;;;;;;7.18;3.35;;;8.30;99.90;;;;;;5036284;28;20225;-78
2023/01/30 12:59:12;;;;;;;6.57;3.28;;;8.40;99.90;;;;;;5035541;28;20662;-79
2023/01/30 13:01:53;;;;;;;8.52;2.75;;;8.50;99.90;;;;;;5054000;28;20237;-77
2023/01/30 13:04:39;;;;;;;10.25;4.95;;;8.40;99.90;;;;;;5039385;28;20220;-76
2023/01/30 13:07:16;;;;;;;6.03;2.95;;;8.50;99.90;;;;;;5053147;28;20239;-77
2023/01/30 13:10:01;;;;;;;12.52;3.80;;;8.50;99.90;;;;;;5053710;28;20224;-77
2023/01/30 13:12:37;;;;;;;8.10;2.63;;;8.60;99.90;;;;;;5053370;28;20294;-79